Time;durP1;ratioP1;P1;durP2;ratioP2;P2;SDS_P1;SDS_P2;PMS_P1;PMS_P2;Temp;Humidity;BMP_temperature;BMP_pressure;BME280_temperature;BME280_humidity;BME280_pressure;Samples;Min_cycle;Max_cycle;Signal;HPM_P1;HPM_P2
2023/12/26 00:02:07;;;;;;;1.08;0.52;;;;;;;16.21;49.52;92991.72;5012530;28;20452;-88
2023/12/26 00:04:33;;;;;;;1.05;0.50;;;;;;;16.31;49.32;92995.59;5022753;28;20068;-89
2023/12/26 00:06:59;;;;;;;1.15;0.50;;;;;;;16.27;49.31;92995.13;5034683;28;20033;-87
2023/12/26 00:09:24;;;;;;;0.50;0.50;;;;;;;16.21;49.72;92997.91;5021800;28;20033;-88
2023/12/26 00:11:50;;;;;;;0.80;0.50;;;;;;;16.19;49.38;92994.94;5027913;28;20037;-88
2023/12/26 00:14:16;;;;;;;1.48;0.60;;;;;;;16.25;49.33;92994.91;5024672;28;20037;-87
2023/12/26 00:16:42;;;;;;;0.57;0.40;;;;;;;16.24;49.57;92988.69;5010168;28;20037;-87
2023/12/26 00:19:08;;;;;;;0.57;0.40;;;;;;;16.24;49.63;92982.53;5008543;28;20049;-87
2023/12/26 00:21:34;;;;;;;0.88;0.50;;;;;;;16.17;49.93;92981.06;5028035;28;20036;-92
2023/12/26 00:23:59;;;;;;;0.60;0.60;;;;;;;16.18;49.53;92974.38;5028565;28;20209;-89
2023/12/26 00:26:25;;;;;;;0.60;0.47;;;;;;;16.23;49.49;92983.78;5064764;28;20105;-88
2023/12/26 00:28:50;;;;;;;1.83;0.30;;;;;;;16.21;49.16;92978.81;5024241;28;20060;-87
2023/12/26 00:31:16;;;;;;;0.88;0.52;;;;;;;16.16;49.93;92976.13;5031212;28;20037;-87
2023/12/26 00:33:41;;;;;;;0.80;0.40;;;;;;;16.24;49.30;92985.97;5021380;28;20107;-88
2023/12/26 00:36:12;;;;;;;0.93;0.50;;;;;;;16.23;49.66;92967.41;5006439;28;20037;-87
2023/12/26 00:38:37;;;;;;;0.95;0.60;;;;;;;16.28;49.34;92967.34;5042062;28;20052;-87
2023/12/26 00:41:03;;;;;;;0.77;0.50;;;;;;;16.28;49.17;92974.78;5022181;28;20045;-88
2023/12/26 00:43:29;;;;;;;2.35;0.43;;;;;;;16.22;49.44;92971.38;5020773;28;20040;-87
2023/12/26 00:45:54;;;;;;;0.43;0.43;;;;;;;16.21;49.53;92967.19;5037988;28;20045;-87
2023/12/26 00:48:20;;;;;;;0.40;0.40;;;;;;;16.23;49.10;92970.88;5002779;28;20041;-87
2023/12/26 00:50:45;;;;;;;0.52;0.52;;;;;;;16.25;49.35;92962.91;5028463;28;20037;-87
2023/12/26 00:53:11;;;;;;;0.50;0.43;;;;;;;16.25;49.29;92962.16;5036562;28;20029;-90
2023/12/26 00:55:36;;;;;;;0.50;0.50;;;;;;;16.17;49.47;92967.44;5065498;28;20145;-87
2023/12/26 00:58:05;;;;;;;0.80;0.40;;;;;;;16.20;49.31;92971.16;5044521;28;20384;-90
2023/12/26 01:00:30;;;;;;;0.50;0.40;;;;;;;16.23;49.62;92967.41;5028703;28;20044;-88
2023/12/26 01:02:56;;;;;;;0.95;0.60;;;;;;;16.25;49.51;92965.63;5027005;28;20037;-87
2023/12/26 01:05:21;;;;;;;0.50;0.50;;;;;;;16.23;49.51;92972.88;5020017;28;20075;-87
2023/12/26 01:07:47;;;;;;;0.68;0.45;;;;;;;16.27;48.99;92968.59;5020311;28;20096;-88
2023/12/26 01:10:12;;;;;;;0.50;0.43;;;;;;;16.26;49.33;92974.56;5059726;28;20049;-88
2023/12/26 01:12:38;;;;;;;1.55;0.50;;;;;;;16.22;49.55;92972.13;5024524;28;20053;-87
2023/12/26 01:15:04;;;;;;;0.50;0.40;;;;;;;16.21;49.72;92973.38;5027342;28;20060;-87
2023/12/26 01:17:30;;;;;;;0.32;0.32;;;;;;;16.18;49.32;92968.19;5024659;28;20556;-88
2023/12/26 01:19:55;;;;;;;2.15;0.60;;;;;;;16.23;49.55;92970.13;5025913;28;20055;-89
2023/12/26 01:22:21;;;;;;;0.57;0.40;;;;;;;16.26;49.27;92974.56;5031891;28;20033;-89
2023/12/26 01:24:48;;;;;;;0.55;0.40;;;;;;;16.24;49.35;92977.78;5009409;28;20119;-87
2023/12/26 01:27:14;;;;;;;0.30;0.30;;;;;;;16.24;49.00;92982.53;5044197;28;20040;-87
2023/12/26 01:29:40;;;;;;;1.23;0.57;;;;;;;16.26;48.88;92971.81;5031363;28;20371;-87
2023/12/26 01:32:06;;;;;;;0.32;0.32;;;;;;;16.31;49.11;92977.25;5017975;28;20044;-87
2023/12/26 01:34:31;;;;;;;0.73;0.60;;;;;;;16.27;49.41;92967.84;5025773;28;20037;-89
2023/12/26 01:36:57;;;;;;;0.90;0.32;;;;;;;16.22;49.63;92966.66;5008616;28;20041;-89
2023/12/26 01:39:22;;;;;;;0.95;0.45;;;;;;;16.24;49.46;92968.91;5030490;28;20045;-88
2023/12/26 01:41:48;;;;;;;0.47;0.40;;;;;;;16.21;49.16;92965.19;5038592;28;20056;-88
2023/12/26 01:44:13;;;;;;;0.63;0.50;;;;;;;16.17;49.37;92959.25;5013052;28;20163;-89
2023/12/26 01:46:39;;;;;;;0.38;0.38;;;;;;;16.19;49.54;92962.22;5018280;28;20057;-88
2023/12/26 01:49:04;;;;;;;0.30;0.30;;;;;;;16.21;49.56;92962.47;5000618;28;20174;-86
2023/12/26 01:51:30;;;;;;;0.30;0.30;;;;;;;16.26;49.02;92960.91;5029554;28;20040;-87
2023/12/26 01:53:55;;;;;;;0.73;0.47;;;;;;;16.26;49.26;92958.94;5030225;28;20033;-87
2023/12/26 01:56:21;;;;;;;0.77;0.43;;;;;;;16.27;49.18;92954.22;5027729;28;20095;-87
2023/12/26 01:58:48;;;;;;;1.33;0.57;;;;;;;16.25;49.28;92946.53;5033052;28;20045;-88
2023/12/26 02:01:13;;;;;;;0.40;0.40;;;;;;;16.21;49.57;92946.09;5048935;28;20037;-87
2023/12/26 02:03:39;;;;;;;0.60;0.60;;;;;;;16.19;49.50;92934.97;5041962;28;20056;-87
2023/12/26 02:06:05;;;;;;;0.40;0.40;;;;;;;16.18;49.53;92944.38;5009951;28;20091;-87
2023/12/26 02:08:30;;;;;;;1.02;0.57;;;;;;;16.18;49.52;92943.66;5046523;28;20079;-88
2023/12/26 02:10:56;;;;;;;0.50;0.40;;;;;;;16.19;49.45;92943.13;5020469;28;20693;-88
2023/12/26 02:13:21;;;;;;;0.40;0.40;;;;;;;16.25;48.97;92941.09;5038382;28;20103;-87
2023/12/26 02:15:47;;;;;;;0.50;0.40;;;;;;;16.21;49.26;92953.53;5021300;28;20041;-87
2023/12/26 02:18:13;;;;;;;0.47;0.45;;;;;;;16.24;49.51;92949.81;5023579;28;20508;-87
2023/12/26 02:20:38;;;;;;;0.40;0.40;;;;;;;16.20;49.26;92947.34;5031354;28;20128;-87
2023/12/26 02:23:04;;;;;;;0.55;0.38;;;;;;;16.20;49.63;92943.88;5026823;28;20827;-87
2023/12/26 02:25:30;;;;;;;0.30;0.30;;;;;;;16.23;49.29;92949.06;5019230;28;20054;-87
2023/12/26 02:27:55;;;;;;;0.30;0.30;;;;;;;16.18;49.34;92955.28;5013658;28;20041;-88
2023/12/26 02:30:21;;;;;;;0.60;0.40;;;;;;;16.25;49.20;92940.34;5038375;28;20503;-88
2023/12/26 02:32:46;;;;;;;0.93;0.50;;;;;;;16.28;49.38;92936.59;5014724;28;20054;-89
2023/12/26 02:35:12;;;;;;;0.43;0.30;;;;;;;16.16;49.24;92935.97;5024838;28;20400;-87
2023/12/26 02:37:37;;;;;;;0.50;0.30;;;;;;;16.23;48.90;92924.53;5025975;28;20049;-87
2023/12/26 02:40:03;;;;;;;0.30;0.30;;;;;;;16.19;49.71;92934.22;5015524;28;20049;-88
2023/12/26 02:42:29;;;;;;;0.65;0.43;;;;;;;16.24;49.20;92933.44;5016768;28;20041;-87
2023/12/26 02:44:56;;;;;;;0.40;0.40;;;;;;;16.24;48.94;92938.91;5027245;28;20049;-88
2023/12/26 02:47:22;;;;;;;1.35;0.50;;;;;;;16.26;49.21;92928.19;5034075;28;20486;-88
2023/12/26 02:49:47;;;;;;;1.05;0.35;;;;;;;16.25;48.90;92929.44;5027821;28;20038;-87
2023/12/26 02:52:13;;;;;;;0.30;0.30;;;;;;;16.24;49.04;92925.25;5002977;28;20029;-90
2023/12/26 02:54:39;;;;;;;0.40;0.40;;;;;;;16.23;48.87;92916.34;5039691;28;20041;-89
2023/12/26 02:57:04;;;;;;;0.43;0.43;;;;;;;16.24;49.10;92917.78;5019720;28;20069;-87
2023/12/26 02:59:30;;;;;;;1.83;0.93;;;;;;;16.21;49.33;92915.38;5010789;28;20041;-88
2023/12/26 03:01:55;;;;;;;0.60;0.40;;;;;;;16.21;48.99;92921.56;5035608;28;20034;-87
2023/12/26 03:04:21;;;;;;;0.68;0.30;;;;;;;16.23;49.09;92919.06;5015508;28;20037;-91
2023/12/26 03:06:46;;;;;;;0.43;0.40;;;;;;;16.24;48.97;92915.06;5030295;28;20033;-89
2023/12/26 03:09:12;;;;;;;0.65;0.40;;;;;;;16.26;48.71;92907.13;5038151;28;20044;-88
2023/12/26 03:11:37;;;;;;;0.85;0.40;;;;;;;16.19;49.45;92907.69;5025555;28;20041;-87
2023/12/26 03:14:03;;;;;;;0.38;0.30;;;;;;;16.30;49.04;92910.31;5040362;28;20037;-89
2023/12/26 03:16:28;;;;;;;1.85;0.40;;;;;;;16.25;49.02;92905.63;4994210;28;20037;-87
2023/12/26 03:18:54;;;;;;;0.40;0.40;;;;;;;16.24;49.24;92889.81;5037382;28;20149;-90
2023/12/26 03:21:21;;;;;;;0.50;0.40;;;;;;;16.27;48.80;92902.41;5018700;28;20152;-87
2023/12/26 03:23:47;;;;;;;0.32;0.30;;;;;;;16.25;48.87;92896.72;5016044;28;20050;-88
2023/12/26 03:26:12;;;;;;;0.40;0.40;;;;;;;16.28;48.53;92904.63;5026949;28;20045;-89
2023/12/26 03:28:38;;;;;;;0.68;0.40;;;;;;;16.22;49.23;92898.50;5007278;28;20104;-86
2023/12/26 03:31:04;;;;;;;0.60;0.50;;;;;;;16.20;48.78;92901.00;4993469;28;20129;-88
2023/12/26 03:33:29;;;;;;;0.38;0.38;;;;;;;16.26;49.22;92895.47;5020944;28;20041;-87
2023/12/26 03:35:55;;;;;;;0.40;0.30;;;;;;;16.22;48.82;92903.22;5030690;28;20526;-87
2023/12/26 03:38:20;;;;;;;0.47;0.40;;;;;;;16.29;48.77;92908.09;5059197;28;20045;-87
2023/12/26 03:40:46;;;;;;;0.73;0.40;;;;;;;16.24;48.75;92917.78;5027152;28;20048;-92
2023/12/26 03:43:11;;;;;;;0.65;0.50;;;;;;;16.27;48.81;92902.41;5009289;28;20053;-88
2023/12/26 03:45:37;;;;;;;0.52;0.30;;;;;;;16.25;48.85;92899.44;5022501;28;20032;-87
2023/12/26 03:48:05;;;;;;;0.40;0.40;;;;;;;16.26;48.85;92884.56;5047591;28;20067;-88
2023/12/26 03:50:30;;;;;;;0.55;0.35;;;;;;;16.26;48.75;92901.66;5035716;28;20080;-89
2023/12/26 03:52:56;;;;;;;0.40;0.40;;;;;;;16.20;49.30;92903.72;5042349;28;20490;-87
2023/12/26 03:55:22;;;;;;;0.85;0.68;;;;;;;16.23;48.89;92893.78;5035018;28;20041;-89
2023/12/26 03:57:48;;;;;;;0.30;0.30;;;;;;;16.25;48.54;92902.91;5006237;28;20045;-87
2023/12/26 04:00:14;;;;;;;0.60;0.40;;;;;;;16.27;48.71;92889.50;5056993;28;20503;-87
2023/12/26 04:02:42;;;;;;;0.43;0.40;;;;;;;16.25;48.78;92892.00;5044140;28;20041;-89
2023/12/26 04:05:08;;;;;;;0.50;0.50;;;;;;;16.26;48.59;92890.00;5054017;28;20051;-88
2023/12/26 04:07:34;;;;;;;0.30;0.30;;;;;;;16.19;49.14;92896.03;5046163;28;20029;-87
2023/12/26 04:09:59;;;;;;;3.03;0.30;;;;;;;16.23;49.15;92883.63;5049244;28;20064;-87
2023/12/26 04:12:26;;;;;;;1.85;0.50;;;;;;;16.25;48.71;92888.53;5043950;28;20056;-88
2023/12/26 04:14:51;;;;;;;1.00;0.50;;;;;;;16.25;48.90;92891.25;5045019;28;20056;-88
2023/12/26 04:17:17;;;;;;;0.47;0.35;;;;;;;16.22;49.34;92901.22;5026097;28;20131;-87
2023/12/26 04:19:42;;;;;;;0.45;0.30;;;;;;;16.25;49.13;92891.25;5002505;28;20041;-89
2023/12/26 04:22:09;;;;;;;0.57;0.40;;;;;;;16.27;48.80;92894.22;5032463;28;20041;-87
2023/12/26 04:24:35;;;;;;;0.50;0.50;;;;;;;16.29;48.78;92897.91;5009750;28;20123;-87
2023/12/26 04:27:01;;;;;;;0.40;0.40;;;;;;;16.24;48.87;92901.44;4993110;28;20424;-88
2023/12/26 04:29:26;;;;;;;0.75;0.40;;;;;;;16.22;48.67;92893.03;5036332;28;20112;-87
2023/12/26 04:31:52;;;;;;;0.40;0.40;;;;;;;16.24;48.94;92898.00;5039669;28;20518;-87
2023/12/26 04:34:17;;;;;;;0.40;0.30;;;;;;;16.26;48.78;92888.03;5034760;28;20067;-87
2023/12/26 04:36:43;;;;;;;0.50;0.47;;;;;;;16.22;48.78;92903.22;5009325;28;20560;-88
2023/12/26 04:39:08;;;;;;;1.02;0.68;;;;;;;16.22;48.71;92887.59;5024041;28;20108;-87
2023/12/26 04:41:34;;;;;;;0.80;0.60;;;;;;;16.18;48.90;92897.28;5007563;28;20083;-87
2023/12/26 04:44:00;;;;;;;1.83;1.23;;;;;;;16.23;48.89;92894.53;5018108;28;20101;-90
2023/12/26 04:46:25;;;;;;;1.85;1.20;;;;;;;16.30;48.82;92893.94;5026036;28;20115;-87
2023/12/26 04:48:52;;;;;;;3.95;2.20;;;;;;;16.28;48.64;92901.16;5007817;28;20044;-90
2023/12/26 04:51:17;;;;;;;4.65;2.35;;;;;;;16.24;48.54;92893.25;5053292;28;20048;-87
2023/12/26 04:53:46;;;;;;;1.52;0.80;;;;;;;16.17;49.31;92893.81;5004200;28;20048;-91
2023/12/26 04:56:18;;;;;;;3.67;2.03;;;;;;;16.23;48.76;92899.97;5026873;28;20072;-87
2023/12/26 04:58:48;;;;;;;1.35;0.85;;;;;;;16.19;49.00;92899.50;5014048;28;20111;-88
2023/12/26 05:01:17;;;;;;;2.40;1.15;;;;;;;16.23;49.10;92902.69;5009686;28;20050;-87
2023/12/26 05:03:43;;;;;;;5.97;3.72;;;;;;;16.22;48.99;92895.03;5011640;28;20061;-88
2023/12/26 05:06:08;;;;;;;6.78;3.92;;;;;;;16.26;49.05;92911.81;5013309;28;20496;-87
2023/12/26 05:08:36;;;;;;;6.97;3.50;;;;;;;16.24;49.01;92898.69;5023267;28;20043;-87
2023/12/26 05:11:02;;;;;;;2.70;1.63;;;;;;;16.18;48.71;92898.03;5016945;28;20044;-87
2023/12/26 05:13:28;;;;;;;4.25;2.58;;;;;;;16.19;48.60;92893.31;5063138;28;20399;-87
2023/12/26 05:15:54;;;;;;;3.85;2.28;;;;;;;16.23;48.74;92896.50;5018654;28;20037;-88
2023/12/26 05:18:20;;;;;;;4.82;2.65;;;;;;;16.21;48.85;92891.56;5013782;28;20050;-87
2023/12/26 05:20:45;;;;;;;6.38;3.90;;;;;;;16.24;48.92;92876.88;5027596;28;20110;-87
2023/12/26 05:23:11;;;;;;;3.85;2.35;;;;;;;16.24;48.99;92901.44;5009357;28;20045;-91
2023/12/26 05:25:36;;;;;;;3.55;2.15;;;;;;;16.21;48.61;92893.53;5026907;28;20048;-89
2023/12/26 05:28:02;;;;;;;5.53;2.50;;;;;;;16.16;48.93;92886.88;5019237;28;20041;-90
2023/12/26 05:30:30;;;;;;;3.08;1.85;;;;;;;16.12;48.47;92891.88;5029752;28;20048;-87
2023/12/26 05:32:56;;;;;;;2.58;1.73;;;;;;;16.27;48.66;92894.22;5018400;28;20044;-88
2023/12/26 05:35:21;;;;;;;4.15;2.53;;;;;;;16.24;48.92;92901.44;5011866;28;20049;-88
2023/12/26 05:37:47;;;;;;;3.15;2.15;;;;;;;16.19;48.96;92906.94;5056835;28;20046;-87
2023/12/26 05:40:13;;;;;;;3.00;1.27;;;;;;;16.17;49.13;92912.16;5041805;28;20123;-87
2023/12/26 05:42:38;;;;;;;4.15;2.30;;;;;;;16.26;48.99;92909.09;5029039;28;20037;-87
2023/12/26 05:45:04;;;;;;;3.10;1.80;;;;;;;16.29;48.46;92910.81;5014105;28;20037;-88
2023/12/26 05:47:29;;;;;;;5.28;2.70;;;;;;;16.26;48.79;92909.84;5020094;28;20034;-89
2023/12/26 05:49:58;;;;;;;2.20;1.77;;;;;;;16.23;48.94;92923.78;5030426;28;20385;-89
2023/12/26 05:52:27;;;;;;;2.13;1.30;;;;;;;16.24;48.50;92930.72;5004927;28;20107;-87
2023/12/26 05:54:52;;;;;;;2.35;1.35;;;;;;;16.25;48.39;92937.63;5028330;28;20042;-87
2023/12/26 05:57:18;;;;;;;4.05;2.25;;;;;;;16.17;48.67;92942.91;5029568;28;20041;-90
2023/12/26 05:59:43;;;;;;;4.25;2.65;;;;;;;16.19;48.65;92942.41;5027922;28;20046;-89
2023/12/26 06:02:09;;;;;;;3.85;2.42;;;;;;;16.17;48.94;92944.88;5047740;28;20041;-88
2023/12/26 06:04:34;;;;;;;2.70;1.70;;;;;;;16.23;48.62;92949.06;5012992;28;20079;-87
2023/12/26 06:07:00;;;;;;;4.00;2.20;;;;;;;16.19;48.45;92947.84;5042779;28;20140;-88
2023/12/26 06:09:26;;;;;;;2.92;1.40;;;;;;;16.22;48.61;92950.31;5030500;28;20041;-88
2023/12/26 06:11:52;;;;;;;2.92;2.00;;;;;;;16.21;48.34;92954.28;5024657;28;20077;-87
2023/12/26 06:14:17;;;;;;;2.45;1.25;;;;;;;16.20;49.04;92963.72;5003712;28;20049;-87
2023/12/26 06:16:43;;;;;;;3.03;2.40;;;;;;;16.20;48.58;92963.72;5022036;28;20044;-89
2023/12/26 06:19:09;;;;;;;1.10;0.80;;;;;;;16.15;48.46;92950.84;5024445;28;20053;-87
2023/12/26 06:21:35;;;;;;;2.80;1.80;;;;;;;16.21;48.52;92961.72;5031807;28;20428;-88
2023/12/26 06:24:00;;;;;;;2.33;1.70;;;;;;;16.22;48.69;92974.84;5045335;28;20407;-88
2023/12/26 06:26:26;;;;;;;2.47;1.48;;;;;;;16.26;48.31;92978.03;5049515;28;20411;-88
2023/12/26 06:28:51;;;;;;;3.17;1.85;;;;;;;16.23;48.22;92973.59;5025870;28;20072;-88
2023/12/26 06:31:18;;;;;;;3.65;2.03;;;;;;;16.26;48.48;92980.00;5031242;28;20158;-87
2023/12/26 06:33:44;;;;;;;2.47;1.65;;;;;;;16.22;48.15;92977.59;5015242;28;20048;-87
2023/12/26 06:36:09;;;;;;;2.22;1.40;;;;;;;16.23;48.35;92989.22;5006088;28;20096;-87
2023/12/26 06:38:34;;;;;;;1.85;1.30;;;;;;;16.17;49.05;92986.53;5028655;28;20052;-87
2023/12/26 06:41:02;;;;;;;3.15;1.77;;;;;;;16.15;48.83;92988.28;5029305;28;20041;-87
2023/12/26 06:43:27;;;;;;;2.60;1.67;;;;;;;16.18;48.53;92998.94;5013397;28;20044;-87
2023/12/26 06:45:53;;;;;;;2.75;1.30;;;;;;;16.22;48.47;93001.38;5019875;28;20102;-87
2023/12/26 06:48:19;;;;;;;1.42;1.05;;;;;;;16.16;48.32;92990.50;5029769;28;20044;-87
2023/12/26 06:50:45;;;;;;;4.05;1.35;;;;;;;16.20;48.48;92990.97;5001892;28;20573;-88
2023/12/26 06:53:10;;;;;;;3.40;1.83;;;;;;;16.22;48.24;93004.84;5029442;28;20037;-87
2023/12/26 06:55:36;;;;;;;2.10;1.30;;;;;;;16.20;48.45;93017.50;5031978;28;20043;-87
2023/12/26 06:58:01;;;;;;;1.40;1.05;;;;;;;16.20;48.52;93020.97;5032501;28;20507;-87
2023/12/26 07:00:27;;;;;;;1.75;1.48;;;;;;;16.26;48.60;93020.91;5029006;28;20048;-88
2023/12/26 07:02:54;;;;;;;1.98;1.38;;;;;;;16.22;48.16;93029.41;4998630;28;20048;-89
2023/12/26 07:05:20;;;;;;;1.98;1.10;;;;;;;16.19;48.23;93032.38;5042960;28;20565;-88
2023/12/26 07:07:45;;;;;;;1.83;1.30;;;;;;;16.20;48.36;93020.25;5030403;28;20055;-87
2023/12/26 07:10:11;;;;;;;1.17;0.93;;;;;;;16.19;48.17;93027.69;5027867;28;20037;-90
2023/12/26 07:12:37;;;;;;;2.60;1.67;;;;;;;16.24;47.99;93045.25;5046313;28;20037;-88
2023/12/26 07:15:04;;;;;;;1.15;1.00;;;;;;;16.22;48.24;93051.22;5018768;28;20427;-87
2023/12/26 07:17:30;;;;;;;1.77;1.10;;;;;;;16.26;48.05;93064.56;5040506;28;20041;-88
2023/12/26 07:19:55;;;;;;;1.45;0.70;;;;;;;16.25;48.46;93058.34;5031915;28;20590;-87
2023/12/26 07:22:21;;;;;;;1.33;1.00;;;;;;;16.25;48.17;93058.34;5038829;28;20044;-87
2023/12/26 07:24:46;;;;;;;1.95;1.33;;;;;;;16.25;47.86;93069.28;5026588;28;20052;-87
2023/12/26 07:27:12;;;;;;;2.55;0.90;;;;;;;16.22;48.15;93078.50;5032726;28;20068;-88
2023/12/26 07:29:37;;;;;;;1.70;1.08;;;;;;;16.17;48.54;93079.25;5030091;28;20041;-87
2023/12/26 07:32:03;;;;;;;1.73;1.35;;;;;;;16.22;48.12;93092.13;5036575;28;20029;-87
2023/12/26 07:34:29;;;;;;;1.55;1.23;;;;;;;16.20;48.42;93094.59;5029175;28;20041;-88
2023/12/26 07:36:54;;;;;;;3.00;1.42;;;;;;;16.26;47.97;93094.56;5027805;28;20045;-89
2023/12/26 07:39:19;;;;;;;2.92;1.40;;;;;;;16.28;48.07;93097.53;4999291;28;20045;-87
2023/12/26 07:41:45;;;;;;;1.45;0.98;;;;;;;16.18;48.26;93110.72;5020780;28;20053;-87
2023/12/26 07:44:11;;;;;;;2.10;1.80;;;;;;;16.24;48.29;93105.25;4997754;28;20045;-89
2023/12/26 07:46:36;;;;;;;2.40;1.80;;;;;;;16.27;48.05;93113.16;5034186;28;20096;-89
2023/12/26 07:49:02;;;;;;;3.33;2.15;;;;;;;16.24;47.72;93121.63;5020052;28;20099;-87
2023/12/26 07:51:27;;;;;;;4.13;2.35;;;;;;;16.25;48.07;93120.34;5013019;28;20053;-88
2023/12/26 07:53:53;;;;;;;3.15;1.98;;;;;;;16.26;48.16;93119.84;5025885;28;20041;-88
2023/12/26 07:56:19;;;;;;;3.05;1.92;;;;;;;16.28;48.17;93130.25;5027533;28;20041;-88
2023/12/26 07:58:44;;;;;;;3.38;2.28;;;;;;;16.26;48.23;93122.56;5013491;28;20519;-87
2023/12/26 08:01:10;;;;;;;1.60;1.17;;;;;;;16.16;48.71;93128.84;5008882;28;20451;-88
2023/12/26 08:03:35;;;;;;;1.90;1.23;;;;;;;16.22;48.16;93135.75;5007150;28;20048;-88
2023/12/26 08:06:01;;;;;;;4.80;2.58;;;;;;;16.24;48.01;93132.53;5011801;28;20040;-87
2023/12/26 08:08:28;;;;;;;4.00;1.98;;;;;;;16.19;48.13;93142.22;5041154;28;20037;-88
2023/12/26 08:10:53;;;;;;;2.80;1.75;;;;;;;16.30;48.15;93149.59;5027818;28;20076;-87
2023/12/26 08:13:19;;;;;;;5.35;2.55;;;;;;;16.23;48.05;93142.69;5018773;28;20476;-89
2023/12/26 08:15:45;;;;;;;2.97;2.00;;;;;;;16.24;48.02;93144.16;5042402;28;20088;-88
2023/12/26 08:18:10;;;;;;;3.45;1.60;;;;;;;16.28;47.72;93143.91;5009252;28;20040;-87
2023/12/26 08:20:37;;;;;;;5.47;2.53;;;;;;;16.22;47.89;93152.13;5022311;28;20049;-87
2023/12/26 08:23:02;;;;;;;4.07;2.05;;;;;;;16.22;48.07;93156.84;5020718;28;20133;-89
2023/12/26 08:25:28;;;;;;;3.22;1.42;;;;;;;16.20;48.10;93156.59;5012351;28;20124;-87
2023/12/26 08:27:54;;;;;;;1.25;0.80;;;;;;;16.16;48.21;93169.75;5060697;28;20067;-87
2023/12/26 08:30:20;;;;;;;2.95;1.92;;;;;;;16.20;48.15;93173.69;5029171;28;20037;-87
2023/12/26 08:32:45;;;;;;;2.30;1.50;;;;;;;16.21;47.77;93172.47;5023818;28;20052;-88
2023/12/26 08:35:11;;;;;;;3.08;1.98;;;;;;;16.25;47.87;93172.91;5021649;28;20040;-88
2023/12/26 08:37:36;;;;;;;3.40;2.20;;;;;;;16.26;47.72;93184.56;5021480;28;20068;-88
2023/12/26 08:40:03;;;;;;;2.15;1.35;;;;;;;16.23;47.89;93191.78;5028038;28;20044;-87
2023/12/26 08:42:28;;;;;;;3.25;1.75;;;;;;;16.29;47.79;93189.03;5043058;28;20064;-87
2023/12/26 08:44:54;;;;;;;3.38;2.05;;;;;;;16.24;47.75;93190.53;5038084;28;20507;-87
2023/12/26 08:47:19;;;;;;;2.30;1.70;;;;;;;16.25;47.92;93199.44;5017409;28;20403;-87
2023/12/26 08:49:45;;;;;;;5.25;2.25;;;;;;;16.23;47.68;93208.16;5022924;28;20036;-87
2023/12/26 08:52:13;;;;;;;3.30;1.70;;;;;;;16.25;47.88;93196.72;5025233;28;20044;-87
2023/12/26 08:54:39;;;;;;;2.03;1.15;;;;;;;16.23;47.72;93197.25;5046023;28;20045;-87
2023/12/26 08:57:04;;;;;;;2.80;1.60;;;;;;;16.27;47.74;93205.13;5015207;28;20040;-88
2023/12/26 08:59:30;;;;;;;1.83;1.23;;;;;;;16.25;47.89;93218.53;5027536;28;20106;-87
2023/12/26 09:01:56;;;;;;;1.48;1.02;;;;;;;16.26;47.73;93214.56;5022522;28;20075;-88
2023/12/26 09:04:26;;;;;;;2.65;1.95;;;;;;;16.22;47.50;93216.84;5038172;28;20037;-87
2023/12/26 09:06:52;;;;;;;2.58;1.48;;;;;;;16.25;47.82;93213.09;5031060;28;20039;-88
2023/12/26 09:09:17;;;;;;;1.95;1.48;;;;;;;16.23;48.07;93219.06;5026597;28;20052;-88
2023/12/26 09:11:43;;;;;;;2.17;1.40;;;;;;;16.24;47.61;93222.53;5013643;28;20136;-88
2023/12/26 09:14:08;;;;;;;1.58;1.33;;;;;;;16.23;48.10;93232.69;5026053;28;20045;-87
2023/12/26 09:16:34;;;;;;;1.25;0.93;;;;;;;16.22;47.70;93236.66;5029300;28;20040;-88
2023/12/26 09:18:59;;;;;;;2.45;1.55;;;;;;;16.29;48.08;93238.84;5013000;28;20049;-88
2023/12/26 09:21:25;;;;;;;1.98;1.02;;;;;;;16.29;47.55;93240.84;5063130;28;20044;-87
2023/12/26 09:23:50;;;;;;;2.50;1.73;;;;;;;16.25;47.55;93237.63;5026259;28;20042;-87
2023/12/26 09:26:21;;;;;;;1.65;1.17;;;;;;;16.29;47.82;93240.84;5010663;28;20053;-87
2023/12/26 09:28:46;;;;;;;2.33;1.55;;;;;;;16.29;47.85;93259.94;5058658;28;20414;-87
2023/12/26 09:31:12;;;;;;;1.00;0.88;;;;;;;16.27;47.74;93260.44;5029515;28;20041;-88
2023/12/26 09:33:37;;;;;;;1.67;1.10;;;;;;;16.27;47.57;93259.69;5035072;28;20041;-87
2023/12/26 09:36:03;;;;;;;2.75;1.42;;;;;;;16.31;47.62;93263.66;5007490;28;20050;-87
2023/12/26 09:38:28;;;;;;;2.20;1.42;;;;;;;16.29;47.72;93257.94;5018414;28;20117;-87
2023/12/26 09:40:54;;;;;;;3.55;1.60;;;;;;;16.33;47.76;93260.44;5029373;28;20049;-87
2023/12/26 09:43:20;;;;;;;2.90;1.80;;;;;;;16.28;47.56;93255.72;5023898;28;20060;-89
2023/12/26 09:45:45;;;;;;;4.45;2.58;;;;;;;16.29;47.85;93270.84;5040236;28;20071;-87
2023/12/26 09:48:11;;;;;;;4.85;2.97;;;;;;;16.25;47.92;93271.09;5041516;28;20048;-87
2023/12/26 09:50:36;;;;;;;5.15;2.83;;;;;;;16.24;47.98;93266.88;5015969;28;20053;-87
2023/12/26 09:53:02;;;;;;;3.95;2.78;;;;;;;16.27;47.62;93265.88;5021344;28;20068;-89
2023/12/26 09:55:28;;;;;;;2.75;1.80;;;;;;;16.26;48.08;93266.38;5024005;28;20121;-88
2023/12/26 09:57:56;;;;;;;2.22;1.65;;;;;;;16.22;47.99;93280.31;5031692;28;20045;-91
2023/12/26 10:00:22;;;;;;;1.17;0.73;;;;;;;16.20;48.11;93269.16;5042490;28;20033;-88
2023/12/26 10:02:49;;;;;;;4.18;2.30;;;;;;;16.25;47.67;93282.00;5019410;28;20092;-88
2023/12/26 10:05:15;;;;;;;2.88;2.05;;;;;;;16.26;48.01;93275.31;5018114;28;20043;-88
2023/12/26 10:07:41;;;;;;;2.65;1.83;;;;;;;16.24;47.57;93275.06;5013444;28;20033;-90
2023/12/26 10:10:06;;;;;;;4.38;3.03;;;;;;;16.27;47.78;93279.53;5040036;28;20055;-89
2023/12/26 10:12:34;;;;;;;2.75;1.83;;;;;;;16.23;48.17;93276.34;5016442;28;20124;-89
2023/12/26 10:15:02;;;;;;;2.78;1.92;;;;;;;16.27;48.01;93273.34;5026002;28;20351;-87
2023/12/26 10:17:28;;;;;;;3.90;2.60;;;;;;;16.35;47.71;93263.41;5020463;28;20062;-88
2023/12/26 10:19:57;;;;;;;4.20;1.80;;;;;;;16.28;47.83;93259.19;5044356;28;20047;-87
2023/12/26 10:22:23;;;;;;;5.32;3.08;;;;;;;16.29;47.70;93271.59;5031819;28;20110;-87
2023/12/26 10:24:49;;;;;;;1.70;1.20;;;;;;;16.26;47.83;93260.94;5036050;28;20037;-88
2023/12/26 10:27:15;;;;;;;4.05;2.10;;;;;;;16.30;47.46;93275.06;5028804;28;20059;-87
2023/12/26 10:29:40;;;;;;;1.85;0.98;;;;;;;16.26;47.94;93269.84;5018784;28;20126;-87
2023/12/26 10:32:06;;;;;;;2.72;1.45;;;;;;;16.32;47.77;93259.69;5012169;28;20818;-88
2023/12/26 10:34:32;;;;;;;1.23;0.98;;;;;;;16.27;47.56;93263.16;5006690;28;20041;-87
2023/12/26 10:36:59;;;;;;;0.88;0.65;;;;;;;16.24;47.75;93264.16;5029999;28;20050;-88
2023/12/26 10:39:24;;;;;;;4.70;2.90;;;;;;;16.29;47.48;93263.41;5012502;28;20060;-89
2023/12/26 10:41:50;;;;;;;3.85;2.17;;;;;;;16.31;47.63;93254.72;5028508;28;20526;-87
2023/12/26 10:44:16;;;;;;;2.40;1.45;;;;;;;16.30;47.69;93264.91;5028969;28;20447;-88
2023/12/26 10:46:42;;;;;;;1.45;1.15;;;;;;;16.24;47.76;93260.72;5027219;28;20041;-88
2023/12/26 10:49:10;;;;;;;1.88;1.27;;;;;;;16.28;47.66;93266.63;5020937;28;20044;-89
2023/12/26 10:51:40;;;;;;;3.28;2.03;;;;;;;16.30;47.59;93264.16;5029205;28;20045;-89
2023/12/26 10:54:24;;;;;;;2.50;1.70;;;;;;;16.26;47.86;93261.69;5028388;28;20049;-89
2023/12/26 10:56:50;;;;;;;0.85;0.75;;;;;;;16.22;47.96;93260.47;5012272;28;20074;-87
2023/12/26 13:53:26;;;;;;;8.73;5.10;;;;;;;16.21;47.73;93338.06;5029061;28;20095;-87
2023/12/26 13:55:52;;;;;;;9.32;3.72;;;;;;;16.19;47.63;93340.56;5038206;28;20045;-87
2023/12/26 13:58:17;;;;;;;4.95;2.40;;;;;;;16.23;47.80;93349.22;5008851;28;20511;-87
2023/12/26 14:00:43;;;;;;;4.07;2.20;;;;;;;16.23;47.66;93346.50;5024477;28;20053;-86
2023/12/26 14:03:08;;;;;;;2.90;1.27;;;;;;;16.20;47.63;93342.78;5016340;28;20336;-87
2023/12/26 14:05:34;;;;;;;5.30;1.90;;;;;;;16.21;47.69;93349.72;5011371;28;20065;-87
2023/12/26 14:07:59;;;;;;;4.20;2.08;;;;;;;16.27;47.84;93344.25;5052937;28;20041;-87
2023/12/26 14:10:25;;;;;;;10.75;3.33;;;;;;;16.32;47.61;93343.50;5037683;28;20038;-88
2023/12/26 14:12:50;;;;;;;4.20;1.88;;;;;;;16.21;47.82;93341.53;5027581;28;20071;-88
2023/12/26 14:15:16;;;;;;;6.35;2.47;;;;;;;16.27;48.03;93338.78;5031130;28;20037;-88
2023/12/26 14:17:41;;;;;;;5.35;2.63;;;;;;;16.31;47.64;93337.31;5019542;28;20037;-90
2023/12/26 14:20:07;;;;;;;5.20;1.23;;;;;;;16.28;47.71;93346.47;5026002;28;20042;-88
2023/12/26 14:22:33;;;;;;;4.05;2.20;;;;;;;16.30;47.86;93348.72;5024103;28;20040;-87